Time;durP1;ratioP1;P1;durP2;ratioP2;P2;SDS_P1;SDS_P2;PMS_P1;PMS_P2;Temp;Humidity;BMP_temperature;BMP_pressure;BME280_temperature;BME280_humidity;BME280_pressure;Samples;Min_cycle;Max_cycle;Signal;HPM_P1;HPM_P2
2022/04/23 00:00:50;;;;;;;21.40;13.77;;;;;;;8.66;84.45;100354.50;5072356;28;20599;-90
2022/04/23 00:03:16;;;;;;;20.27;13.38;;;;;;;8.63;84.53;100355.81;5073655;28;20039;-90
2022/04/23 00:06:37;;;;;;;22.00;13.80;;;;;;;8.55;84.01;100351.75;5081807;22;20355;-91
2022/04/23 00:09:17;;;;;;;20.05;13.30;;;;;;;8.38;84.35;100337.72;5093847;28;20050;-90
2022/04/23 00:11:48;;;;;;;20.17;12.82;;;;;;;8.38;85.24;100335.81;5093399;28;20491;-91
2022/04/23 00:17:26;;;;;;;20.75;13.80;;;;;;;8.39;85.62;100347.31;5093604;28;20066;-91
2022/04/23 00:20:24;;;;;;;21.75;13.77;;;;;;;8.36;85.95;100339.81;5093528;28;20036;-90
2022/04/23 00:25:59;;;;;;;21.53;13.73;;;;;;;8.33;86.69;100360.63;5146205;23;20313;-89
2022/04/23 00:28:24;;;;;;;20.48;13.80;;;;;;;8.36;86.31;100351.28;5073696;28;20096;-88
2022/04/23 00:30:52;;;;;;;22.20;13.87;;;;;;;8.26;87.22;100352.00;5067267;28;20037;-89
2022/04/23 00:33:20;;;;;;;22.20;14.18;;;;;;;8.23;87.45;100341.03;5075640;28;20040;-89
2022/04/23 00:38:49;;;;;;;23.80;14.02;;;;;;;8.15;86.57;100355.66;5076422;22;20496;-90
2022/04/23 00:42:02;;;;;;;23.60;13.50;;;;;;;8.11;87.41;100355.38;5072708;28;20513;-89
2022/04/23 00:44:30;;;;;;;22.80;14.35;;;;;;;7.99;87.91;100342.19;5063576;28;20031;-89
2022/04/23 00:47:24;;;;;;;20.90;14.75;;;;;;;8.05;87.89;100356.38;5060087;28;20080;-89
2022/04/23 00:53:15;;;;;;;23.77;14.77;;;;;;;7.78;88.75;100335.81;5064485;28;20102;-89
2022/04/23 00:55:52;;;;;;;20.97;13.80;;;;;;;7.77;89.30;100331.53;5364204;22;20259;-89
2022/04/23 01:07:23;;;;;;;27.30;15.65;;;;;;;7.84;89.83;100332.16;5095852;23;20400;-90
2022/04/23 01:09:50;;;;;;;23.88;15.95;;;;;;;7.94;89.89;100347.44;5074212;28;20115;-90
2022/04/23 01:16:00;;;;;;;25.23;16.23;;;;;;;7.96;89.32;100348.00;5112280;23;20095;-91
2022/04/23 01:18:25;;;;;;;23.88;14.93;;;;;;;7.87;90.12;100349.50;5022060;28;20081;-90
2022/04/23 01:20:52;;;;;;;24.37;15.90;;;;;;;7.87;90.52;100346.84;5059920;28;20041;-91
2022/04/23 01:23:17;;;;;;;22.15;14.30;;;;;;;7.85;90.71;100347.09;5054474;28;20013;-90
2022/04/23 01:32:14;;;;;;;26.35;17.42;;;;;;;7.84;90.68;100355.38;5079600;28;20079;-90
2022/04/23 01:37:10;;;;;;;23.65;15.63;;;;;;;7.74;91.52;100342.72;5241652;23;20356;-90
2022/04/23 01:40:26;;;;;;;;;;;;;;;;;;;;;
2022/04/23 01:52:45;;;;;;;30.67;17.67;;;;;;;7.69;92.37;100343.44;5055687;28;20067;-91
2022/04/23 02:05:41;;;;;;;;;;;;;;;;;;;;;
2022/04/23 02:11:29;;;;;;;33.45;19.20;;;;;;;7.55;93.37;100336.91;4992181;28;20114;-89
2022/04/23 02:17:34;;;;;;;31.53;19.10;;;;;;;7.55;92.48;100334.22;5182591;22;20423;-90
2022/04/23 02:20:16;;;;;;;32.70;19.87;;;;;;;7.51;93.41;100333.94;5072330;28;20291;-90
2022/04/23 02:23:16;;;;;;;33.80;19.77;;;;;;;7.55;94.06;100342.22;5072842;28;20033;-90
2022/04/23 02:29:00;;;;;;;35.60;21.55;;;;;;;7.53;94.54;100336.34;5072071;28;20033;-90
2022/04/23 02:32:19;;;;;;;33.87;21.13;;;;;;;7.63;93.59;100355.13;5074052;28;20028;-90
2022/04/23 02:43:29;;;;;;;34.15;20.90;;;;;;;7.41;94.88;100336.47;5090724;22;20110;-90
2022/04/23 02:46:02;;;;;;;34.35;20.45;;;;;;;7.47;95.08;100348.81;5254496;23;20048;-90
2022/04/23 02:51:29;;;;;;;35.55;22.27;;;;;;;7.38;95.73;100337.78;5161707;22;20060;-90
2022/04/23 02:54:17;;;;;;;31.63;19.77;;;;;;;7.46;95.85;100354.41;5061550;28;20100;-90
2022/04/23 02:56:57;;;;;;;39.80;21.57;;;;;;;7.50;95.65;100343.00;5057462;28;20303;-90
2022/04/23 02:59:23;;;;;;;38.08;22.35;;;;;;;7.41;95.99;100347.94;5057523;28;20021;-91
2022/04/23 03:01:48;;;;;;;33.08;18.45;;;;;;;7.45;95.85;100336.78;5056489;28;20112;-90
2022/04/23 03:04:15;;;;;;;36.40;21.00;;;;;;;7.53;95.95;100349.66;5057631;28;20112;-90
2022/04/23 03:13:24;;;;;;;37.33;21.07;;;;;;;7.50;95.69;100340.31;5074720;28;20310;-89
2022/04/23 03:16:15;;;;;;;34.17;19.73;;;;;;;7.49;95.84;100340.56;5072135;28;20036;-90
2022/04/23 03:22:01;;;;;;;40.42;23.13;;;;;;;7.37;96.70;100325.50;5073811;28;20036;-89
2022/04/23 03:27:02;;;;;;;44.38;23.55;;;;;;;7.36;96.98;100344.41;4677321;26;20047;-89
2022/04/23 03:29:27;;;;;;;40.77;23.80;;;;;;;7.38;97.19;100336.97;5073098;28;20029;-90
2022/04/23 03:31:53;;;;;;;36.60;20.50;;;;;;;7.31;97.16;100345.13;5074070;28;20028;-90
2022/04/23 03:34:18;;;;;;;35.97;22.00;;;;;;;7.32;97.36;100343.28;5073052;28;20036;-90
2022/04/23 03:36:44;;;;;;;42.27;23.83;;;;;;;7.28;97.75;100333.13;5230174;23;20109;-94
2022/04/23 03:39:09;;;;;;;37.45;22.75;;;;;;;7.24;97.94;100331.22;5094876;28;20391;-93
2022/04/23 03:41:34;;;;;;;37.93;21.63;;;;;;;7.28;98.07;100330.47;5092520;28;20032;-90
2022/04/23 03:44:00;;;;;;;38.57;23.13;;;;;;;7.19;97.77;100331.97;5090486;28;20737;-90
2022/04/23 03:46:25;;;;;;;40.17;24.80;;;;;;;7.07;98.01;100326.75;5316224;22;20523;-90
2022/04/23 03:48:58;;;;;;;37.03;23.10;;;;;;;7.06;98.30;100327.78;5051559;28;20029;-89
2022/04/23 03:57:50;;;;;;;43.55;24.17;;;;;;;7.03;98.88;100322.94;4971123;28;20491;-89
2022/04/23 04:27:26;;;;;;;46.80;25.58;;;;;;;7.00;100.00;100307.44;5457284;22;20059;-86
2022/04/23 04:29:51;;;;;;;45.40;25.67;;;;;;;6.99;100.00;100303.19;5071102;28;20024;-86
2022/04/23 04:32:16;;;;;;;42.40;25.03;;;;;;;6.99;100.00;100302.38;5090732;28;20032;-86
2022/04/23 04:34:42;;;;;;;41.23;24.47;;;;;;;7.01;100.00;100310.94;5089238;28;20034;-86
2022/04/23 04:37:10;;;;;;;44.03;24.10;;;;;;;7.11;100.00;100311.88;5086681;28;20036;-86
2022/04/23 04:39:37;;;;;;;44.45;26.27;;;;;;;7.10;100.00;100310.25;5067978;28;20044;-86
2022/04/23 04:42:04;;;;;;;41.28;23.58;;;;;;;7.16;100.00;100312.97;5086719;28;20028;-86
2022/04/23 04:44:29;;;;;;;45.42;25.98;;;;;;;7.21;99.92;100315.72;5091176;28;20056;-87
2022/04/23 04:46:54;;;;;;;42.47;26.10;;;;;;;7.20;100.00;100317.59;5089253;28;20058;-85
2022/04/23 04:49:22;;;;;;;35.77;20.27;;;;;;;7.18;100.00;100313.53;5088255;28;20055;-87
2022/04/23 04:51:47;;;;;;;44.35;25.55;;;;;;;7.19;100.00;100318.63;5086252;28;20028;-86
2022/04/23 04:54:14;;;;;;;45.38;26.88;;;;;;;7.28;100.00;100311.81;5085013;28;20117;-87
2022/04/23 04:56:39;;;;;;;43.20;25.47;;;;;;;7.28;100.00;100316.34;5084749;28;20043;-86
2022/04/23 04:59:05;;;;;;;42.15;25.23;;;;;;;7.32;100.00;100321.97;5087199;28;20028;-86
2022/04/23 05:01:30;;;;;;;44.93;25.77;;;;;;;7.35;100.00;100322.28;5093864;28;20085;-86
2022/04/23 05:03:55;;;;;;;46.37;26.03;;;;;;;7.43;100.00;100329.84;5091080;28;20028;-85
2022/04/23 05:06:21;;;;;;;45.23;25.83;;;;;;;7.43;100.00;100332.50;5093316;28;20467;-87
2022/04/23 05:08:47;;;;;;;40.20;23.43;;;;;;;7.48;99.75;100330.97;5072238;28;20773;-85
2022/04/23 05:11:12;;;;;;;44.03;25.98;;;;;;;7.56;100.00;100335.84;5090040;28;20067;-85
2022/04/23 05:13:38;;;;;;;43.77;25.37;;;;;;;7.62;100.00;100339.38;5093501;28;20044;-85
2022/04/23 05:16:06;;;;;;;41.73;25.63;;;;;;;7.63;99.90;100336.47;5093260;28;20028;-85
2022/04/23 05:18:35;;;;;;;41.67;23.42;;;;;;;7.72;99.33;100336.84;5092968;28;20110;-85
2022/04/23 05:21:02;;;;;;;40.78;25.52;;;;;;;7.72;99.21;100337.63;5094959;28;20024;-85
2022/04/23 05:23:27;;;;;;;40.35;24.60;;;;;;;7.76;99.60;100335.25;5113575;28;20538;-85
2022/04/23 05:25:52;;;;;;;40.37;24.60;;;;;;;7.87;99.02;100317.50;5075774;28;20028;-86
2022/04/23 05:28:18;;;;;;;41.07;24.37;;;;;;;7.95;98.65;100322.38;5092775;28;20032;-86
2022/04/23 05:30:45;;;;;;;41.90;24.23;;;;;;;8.08;97.48;100328.34;5092651;28;20056;-85
2022/04/23 05:33:11;;;;;;;40.13;24.60;;;;;;;8.12;97.89;100332.97;5092324;28;20062;-85
2022/04/23 05:35:36;;;;;;;40.03;23.77;;;;;;;8.19;97.53;100324.75;5090413;28;20329;-86
2022/04/23 05:38:06;;;;;;;39.03;24.45;;;;;;;8.18;97.77;100326.59;5089578;28;20028;-85
2022/04/23 05:40:32;;;;;;;40.17;25.40;;;;;;;8.25;97.26;100331.72;5089680;28;20551;-86
2022/04/23 05:42:58;;;;;;;41.20;23.52;;;;;;;8.29;97.47;100322.16;5090588;28;20601;-86
2022/04/23 05:45:29;;;;;;;36.90;21.02;;;;;;;8.37;96.98;100330.75;5090663;28;20035;-86
2022/04/23 05:47:55;;;;;;;41.20;24.25;;;;;;;8.46;96.66;100331.88;5081573;28;20491;-86
2022/04/23 05:50:21;;;;;;;39.55;23.95;;;;;;;8.53;96.81;100335.19;5088138;28;20047;-85
2022/04/23 05:52:46;;;;;;;39.07;23.23;;;;;;;8.62;96.26;100330.16;5088480;28;20032;-86
2022/04/23 05:55:12;;;;;;;38.57;23.10;;;;;;;8.67;96.16;100332.06;5092678;28;20422;-86
2022/04/23 05:57:37;;;;;;;37.83;23.60;;;;;;;8.80;95.32;100336.94;5092997;28;20131;-86
2022/04/23 06:00:08;;;;;;;39.45;25.17;;;;;;;8.85;94.76;100320.16;5091736;28;20027;-84
2022/04/23 06:02:34;;;;;;;35.58;23.00;;;;;;;8.90;95.09;100326.34;5089354;28;20044;-84
2022/04/23 06:04:59;;;;;;;34.60;22.50;;;;;;;8.98;94.75;100322.38;5091934;28;20121;-84
2022/04/23 06:07:25;;;;;;;36.60;22.60;;;;;;;9.07;94.17;100326.16;5092743;28;20043;-85
2022/04/23 06:09:50;;;;;;;33.37;21.77;;;;;;;9.18;93.27;100323.53;5091040;28;20293;-84
2022/04/23 06:12:15;;;;;;;34.87;22.37;;;;;;;9.27;92.97;100332.66;5092509;28;20028;-84
2022/04/23 06:14:44;;;;;;;34.50;21.33;;;;;;;9.33;92.40;100330.81;5091635;28;20020;-85
2022/04/23 06:17:11;;;;;;;33.45;22.08;;;;;;;9.44;92.01;100326.28;5090451;28;20501;-86
2022/04/23 06:19:37;;;;;;;36.22;22.70;;;;;;;9.51;91.82;100334.88;5090732;28;20571;-85
2022/04/23 06:22:03;;;;;;;36.75;22.90;;;;;;;9.59;91.32;100317.53;5094014;28;20016;-87
2022/04/23 06:24:28;;;;;;;39.92;23.25;;;;;;;9.70;91.31;100319.97;5105651;28;20024;-87
2022/04/23 06:26:54;;;;;;;31.90;19.83;;;;;;;9.85;89.21;100321.88;5080535;28;20510;-85
2022/04/23 06:29:19;;;;;;;37.50;23.80;;;;;;;9.92;89.27;100326.97;5094309;28;20032;-86
2022/04/23 06:31:44;;;;;;;36.90;22.37;;;;;;;10.03;88.73;100317.09;5076888;28;20028;-87
2022/04/23 06:34:10;;;;;;;34.03;21.57;;;;;;;10.09;88.08;100324.03;5097320;28;20027;-91
2022/04/23 06:36:39;;;;;;;32.53;20.33;;;;;;;10.13;87.92;100322.44;5100417;28;20032;-90
2022/04/23 06:39:06;;;;;;;33.88;19.15;;;;;;;10.23;86.93;100327.00;5105135;28;20513;-90
2022/04/23 06:41:32;;;;;;;31.25;20.98;;;;;;;10.32;87.06;100334.50;5098562;28;20059;-93
2022/04/23 06:44:08;;;;;;;24.98;17.55;;;;;;;10.40;86.14;100326.75;5106277;22;21267;-89
2022/04/23 06:46:36;;;;;;;29.43;20.07;;;;;;;10.45;84.82;100324.06;5072492;28;20040;-88
2022/04/23 06:49:08;;;;;;;32.60;20.87;;;;;;;10.53;85.64;100329.97;5068900;28;20304;-89
2022/04/23 06:52:00;;;;;;;33.97;21.65;;;;;;;10.63;85.01;100324.56;5064524;28;20055;-91
2022/04/23 06:54:28;;;;;;;34.83;22.05;;;;;;;10.71;84.22;100326.72;5373587;22;20052;-94
2022/04/23 06:56:54;;;;;;;30.88;20.55;;;;;;;10.73;84.47;100313.84;5074620;28;20024;-93
2022/04/23 06:59:19;;;;;;;27.70;19.30;;;;;;;10.83;82.92;100317.56;5081437;28;20252;-90
2022/04/23 07:02:02;;;;;;;32.43;21.60;;;;;;;10.86;82.58;100312.47;5093377;28;20024;-90
2022/04/23 07:04:28;;;;;;;32.50;20.45;;;;;;;10.94;82.63;100299.59;5092774;28;20028;-88
2022/04/23 07:06:54;;;;;;;30.48;21.02;;;;;;;11.01;81.80;100298.22;5092835;28;20046;-89
2022/04/23 07:09:19;;;;;;;28.53;18.27;;;;;;;11.18;80.55;100314.00;5069448;28;20036;-87
2022/04/23 07:11:45;;;;;;;30.63;21.60;;;;;;;11.26;80.20;100309.94;5088229;28;20067;-86
2022/04/23 07:14:11;;;;;;;32.33;22.10;;;;;;;11.34;80.32;100317.41;5091156;28;20035;-88
2022/04/23 07:16:36;;;;;;;26.60;18.87;;;;;;;11.42;79.21;100309.88;5085431;28;20319;-87
2022/04/23 07:19:01;;;;;;;32.30;20.03;;;;;;;11.48;78.83;100316.81;5089374;28;20031;-89
2022/04/23 07:21:27;;;;;;;31.83;21.90;;;;;;;11.51;78.99;100314.38;5081903;28;20055;-88
2022/04/23 07:24:05;;;;;;;29.37;20.17;;;;;;;11.61;77.86;100316.19;5070949;28;20119;-90
2022/04/23 07:26:32;;;;;;;30.88;20.75;;;;;;;11.68;77.71;100301.69;5087894;28;20040;-89
2022/04/23 07:28:57;;;;;;;30.52;20.08;;;;;;;11.76;77.21;100306.44;5091191;28;20047;-89
2022/04/23 07:31:24;;;;;;;28.45;17.80;;;;;;;11.82;76.96;100306.13;5084117;28;20483;-89
2022/04/23 07:39:19;;;;;;;27.67;19.57;;;;;;;12.14;75.63;100298.69;5099217;28;20977;-93
2022/04/23 07:41:44;;;;;;;31.90;21.52;;;;;;;12.22;76.23;100298.09;5093775;28;20044;-93
2022/04/23 07:44:09;;;;;;;31.80;21.23;;;;;;;12.34;75.04;100291.53;5098312;28;20425;-94
2022/04/23 07:46:35;;;;;;;29.23;19.60;;;;;;;12.53;74.02;100292.44;5099839;28;20062;-93
2022/04/23 07:49:10;;;;;;;28.27;19.75;;;;;;;12.52;73.36;100301.59;5100829;28;20032;-94
2022/04/23 07:51:36;;;;;;;27.27;19.27;;;;;;;12.60;72.73;100296.69;5085491;28;20078;-91
2022/04/23 07:54:01;;;;;;;27.73;18.92;;;;;;;12.69;72.74;100292.28;5074723;28;20551;-93
2022/04/23 07:56:27;;;;;;;25.10;17.00;;;;;;;12.82;72.24;100302.34;5080796;28;20032;-92
2022/04/23 07:58:52;;;;;;;26.97;19.27;;;;;;;12.89;71.41;100299.31;5074988;28;20275;-92
2022/04/23 08:01:19;;;;;;;29.13;19.37;;;;;;;13.07;71.68;100300.47;5075177;28;20119;-91
2022/04/23 08:03:44;;;;;;;25.08;18.50;;;;;;;13.24;70.65;100299.19;5133799;23;20137;-90
2022/04/23 08:06:10;;;;;;;25.70;19.47;;;;;;;13.38;68.84;100291.22;5074727;28;20279;-93
2022/04/23 08:08:36;;;;;;;25.85;18.50;;;;;;;13.46;67.82;100291.41;5058536;28;20025;-91
2022/04/23 08:11:01;;;;;;;25.23;18.40;;;;;;;13.61;66.22;100279.59;5077060;28;20024;-92
2022/04/23 08:19:57;;;;;;;25.40;16.70;;;;;;;14.03;66.66;100274.41;5236563;22;20056;-90
2022/04/23 08:22:23;;;;;;;22.02;15.98;;;;;;;14.12;63.60;100273.72;5067715;28;20044;-91
2022/04/23 08:24:52;;;;;;;26.70;19.30;;;;;;;14.12;63.45;100262.94;5087144;28;20016;-90
2022/04/23 08:27:17;;;;;;;24.85;18.23;;;;;;;14.32;64.69;100270.66;5087341;28;20024;-91
2022/04/23 08:32:48;;;;;;;23.43;17.93;;;;;;;14.68;61.62;100275.44;5084638;28;20274;-89
2022/04/23 08:42:26;;;;;;;;;;;;;;;;;;;;;
2022/04/23 08:44:59;;;;;;;24.55;16.63;;;;;;;14.75;61.40;100268.88;5095615;28;20106;-90
2022/04/23 08:47:50;;;;;;;24.70;16.80;;;;;;;14.96;61.37;100280.84;5094842;28;20118;-93
2022/04/23 08:50:23;;;;;;;26.25;18.38;;;;;;;15.12;60.12;100267.81;5098925;28;20038;-92
2022/04/23 09:00:43;;;;;;;20.93;15.70;;;;;;;15.79;57.39;100284.47;5077425;28;20270;-92
2022/04/23 09:03:18;;;;;;;26.42;18.10;;;;;;;15.87;57.79;100269.44;5076001;28;20025;-91
2022/04/23 09:05:58;;;;;;;25.17;18.10;;;;;;;16.08;56.95;100264.34;5076480;28;20025;-93
2022/04/23 09:08:32;;;;;;;26.48;19.25;;;;;;;16.18;56.65;100269.50;5047326;28;20387;-93
2022/04/23 09:10:57;;;;;;;26.20;18.23;;;;;;;16.29;56.12;100288.97;5075336;28;20534;-92
2022/04/23 09:13:31;;;;;;;23.33;18.23;;;;;;;16.43;56.53;100279.97;5076227;28;20029;-90
2022/04/23 09:24:55;;;;;;;24.38;18.15;;;;;;;16.73;52.98;100291.88;5081982;28;20047;-95
2022/04/23 09:27:28;;;;;;;29.17;20.38;;;;;;;16.50;54.66;100286.50;5085473;28;20480;-93
2022/04/23 09:30:31;;;;;;;28.17;21.00;;;;;;;16.57;55.74;100293.41;5082628;28;20506;-94
2022/04/23 09:33:06;;;;;;;27.53;20.53;;;;;;;16.91;54.66;100273.00;5082233;28;20733;-95
2022/04/23 09:35:32;;;;;;;24.88;20.15;;;;;;;17.37;52.82;100300.66;5082488;28;20115;-95
2022/04/23 09:38:55;;;;;;;29.73;22.17;;;;;;;17.38;54.76;100286.78;5076214;28;20115;-94
2022/04/23 09:44:53;;;;;;;32.53;22.00;;;;;;;17.01;53.08;100288.16;5645130;22;20660;-95
2022/04/23 09:47:31;;;;;;;27.43;21.63;;;;;;;17.06;53.31;100291.53;5081188;28;20016;-92
2022/04/23 09:49:58;;;;;;;28.13;21.25;;;;;;;17.22;51.97;100277.53;5079888;28;20452;-92
2022/04/23 09:55:08;;;;;;;28.95;22.27;;;;;;;17.47;51.49;100277.91;5100572;23;20057;-94
2022/04/23 09:57:34;;;;;;;28.33;20.48;;;;;;;17.51;50.81;100271.50;5081285;28;20025;-93
2022/04/23 10:00:02;;;;;;;29.13;23.03;;;;;;;17.47;51.78;100286.03;5068908;28;20035;-91
2022/04/23 10:02:27;;;;;;;30.70;23.85;;;;;;;17.55;51.35;100285.22;5055221;28;20041;-93
2022/04/23 10:08:00;;;;;;;26.83;20.60;;;;;;;17.70;51.77;100286.66;5237920;22;20060;-94
2022/04/23 10:11:13;;;;;;;29.42;21.65;;;;;;;17.81;51.44;100279.00;5089677;23;20032;-93
2022/04/23 10:14:02;;;;;;;34.72;22.85;;;;;;;17.81;50.03;100268.94;5034784;28;20044;-93
2022/04/23 10:16:44;;;;;;;29.67;24.50;;;;;;;17.81;50.09;100268.16;5034416;28;20048;-92
2022/04/23 10:19:28;;;;;;;27.00;21.23;;;;;;;18.08;50.00;100260.81;5021318;28;20030;-94
2022/04/23 10:22:32;;;;;;;24.42;19.83;;;;;;;18.35;50.24;100267.75;5013795;28;20029;-93
2022/04/23 10:41:54;;;;;;;28.42;20.73;;;;;;;18.42;49.84;100256.41;5092105;28;20046;-96
2022/04/23 10:44:46;;;;;;;30.90;21.58;;;;;;;18.33;50.65;100242.09;5070346;28;20040;-96
2022/04/23 10:47:47;;;;;;;29.38;22.83;;;;;;;18.60;49.84;100262.56;5070216;28;20421;-92
2022/04/23 10:50:20;;;;;;;33.72;23.25;;;;;;;18.63;48.21;100256.50;5090415;28;20028;-95
2022/04/23 10:56:40;;;;;;;30.70;23.20;;;;;;;18.57;48.75;100258.59;5006065;28;20053;-87
2022/04/23 10:59:33;;;;;;;33.22;22.98;;;;;;;18.78;48.61;100252.44;5049158;28;20037;-87
2022/04/23 11:02:56;;;;;;;29.52;22.83;;;;;;;18.97;47.90;100253.97;5077776;28;20035;-86
2022/04/23 11:14:45;;;;;;;28.42;22.38;;;;;;;18.28;49.58;100241.13;5055295;28;20060;-87
2022/04/23 11:17:26;;;;;;;28.05;20.77;;;;;;;18.45;49.02;100232.16;5072133;28;20039;-87
2022/04/23 11:19:55;;;;;;;25.88;21.52;;;;;;;18.59;48.23;100236.56;5071635;28;20037;-87
2022/04/23 11:22:21;;;;;;;29.50;21.27;;;;;;;18.89;47.21;100225.72;5072594;28;20032;-87
2022/04/23 11:24:57;;;;;;;26.80;21.33;;;;;;;19.36;47.22;100236.41;5073198;28;20448;-86
2022/04/23 11:27:48;;;;;;;27.75;21.23;;;;;;;19.59;45.75;100227.94;5069509;28;20071;-88
2022/04/23 11:30:36;;;;;;;26.00;20.10;;;;;;;19.85;45.29;100235.03;5071791;28;20040;-87
2022/04/23 11:33:22;;;;;;;26.13;20.50;;;;;;;19.81;44.94;100215.09;4991872;28;20041;-88
2022/04/23 11:35:47;;;;;;;25.27;20.20;;;;;;;20.00;43.75;100225.47;4973271;28;20320;-88
2022/04/23 11:38:20;;;;;;;27.95;19.98;;;;;;;20.11;43.47;100234.00;5010633;28;20496;-88
2022/04/23 11:40:46;;;;;;;24.77;20.63;;;;;;;20.06;43.90;100237.72;5058115;28;20043;-88
2022/04/23 11:43:32;;;;;;;23.70;20.00;;;;;;;20.15;44.30;100224.03;5084386;22;20126;-88
2022/04/23 11:46:11;;;;;;;23.60;18.10;;;;;;;20.06;43.83;100220.59;5054419;28;20028;-88
2022/04/23 11:48:41;;;;;;;29.25;20.77;;;;;;;19.98;44.47;100211.41;5069404;28;20024;-88
2022/04/23 11:51:14;;;;;;;24.77;19.70;;;;;;;20.24;44.09;100205.69;5072103;28;20036;-88
2022/04/23 11:53:56;;;;;;;24.27;20.70;;;;;;;20.20;43.77;100210.19;5067303;28;20358;-88
2022/04/23 11:56:30;;;;;;;27.35;20.30;;;;;;;20.29;43.68;100207.38;5075648;28;20082;-88
2022/04/23 11:58:58;;;;;;;23.58;19.02;;;;;;;20.46;42.53;100205.56;5067516;28;20634;-88
2022/04/23 12:01:25;;;;;;;23.77;19.15;;;;;;;20.41;42.36;100221.00;5070622;28;20031;-88
2022/04/23 12:03:54;;;;;;;23.40;18.17;;;;;;;20.34;43.11;100209.09;5071549;28;20020;-87
2022/04/23 12:06:21;;;;;;;26.20;19.33;;;;;;;20.42;42.61;100203.53;5071779;28;20032;-87
2022/04/23 12:08:46;;;;;;;27.30;20.20;;;;;;;20.38;43.05;100210.78;5071172;28;20527;-87
2022/04/23 12:11:38;;;;;;;25.80;19.03;;;;;;;20.24;43.46;100213.84;5057355;28;20020;-89
2022/04/23 12:14:05;;;;;;;27.90;20.13;;;;;;;20.00;43.34;100205.63;5061075;28;20446;-89
2022/04/23 12:16:35;;;;;;;22.45;19.27;;;;;;;19.90;43.25;100201.44;5070855;28;20040;-89
2022/04/23 12:19:06;;;;;;;29.98;20.13;;;;;;;19.79;43.32;100199.09;5063994;28;20411;-89
2022/04/23 12:21:32;;;;;;;23.45;17.88;;;;;;;19.94;43.48;100191.47;5073405;28;20111;-89
2022/04/23 12:23:58;;;;;;;26.20;18.98;;;;;;;20.31;43.83;100198.88;5066360;28;20012;-92
2022/04/23 12:26:24;;;;;;;32.53;21.25;;;;;;;20.43;42.83;100188.81;5073871;28;20035;-91
2022/04/23 12:42:45;;;;;;;29.73;19.63;;;;;;;20.11;42.87;100166.78;5110943;23;20035;-94
2022/04/23 12:45:23;;;;;;;26.58;18.95;;;;;;;20.07;42.65;100160.47;5075010;28;20041;-94
2022/04/23 12:47:48;;;;;;;27.10;20.08;;;;;;;20.23;41.58;100154.34;5079738;28;20464;-94
2022/04/23 12:50:33;;;;;;;24.23;19.20;;;;;;;20.88;42.00;100162.59;5075068;28;20024;-94
2022/04/23 12:53:42;;;;;;;;;;;;;;;;;;;;;
2022/04/23 12:56:09;;;;;;;31.23;20.35;;;;;;;21.36;40.35;100151.06;5062200;28;20036;-91
2022/04/23 12:58:43;;;;;;;26.33;18.85;;;;;;;21.65;40.75;100153.78;5075109;28;20040;-90
2022/04/23 13:01:12;;;;;;;24.77;17.23;;;;;;;21.74;38.77;100154.41;5079718;28;20029;-84
2022/04/23 13:03:41;;;;;;;24.37;18.10;;;;;;;21.91;39.59;100156.00;5069051;28;20033;-84
2022/04/23 13:08:54;;;;;;;25.50;17.63;;;;;;;22.01;38.68;100162.88;5069444;28;20356;-83
2022/04/23 13:08:56;;;;;;;23.08;16.63;;;;;;;21.93;38.12;100143.59;5062948;28;20036;-84
2022/04/23 13:11:29;;;;;;;22.60;17.55;;;;;;;21.61;38.19;100154.50;5044096;28;20033;-85
2022/04/23 13:14:00;;;;;;;22.83;16.95;;;;;;;21.65;39.98;100145.63;5064869;28;20016;-84
2022/04/23 13:16:27;;;;;;;24.63;18.38;;;;;;;21.68;39.25;100151.16;5063186;28;20039;-84
2022/04/23 13:18:57;;;;;;;32.88;17.65;;;;;;;21.78;39.52;100137.03;5064241;28;20020;-85
2022/04/23 13:21:28;;;;;;;27.60;16.08;;;;;;;21.62;38.60;100149.84;5072904;28;20024;-85
2022/04/23 13:23:54;;;;;;;21.23;14.75;;;;;;;21.44;38.85;100141.16;5072644;28;20176;-84
2022/04/23 13:26:21;;;;;;;21.77;16.13;;;;;;;21.43;39.46;100140.38;5072719;28;20028;-84
2022/04/23 13:28:47;;;;;;;28.33;19.10;;;;;;;21.56;39.32;100141.06;5071968;28;20027;-84
2022/04/23 13:31:13;;;;;;;23.03;17.97;;;;;;;21.71;38.52;100128.66;5073345;28;20332;-84
2022/04/23 13:33:39;;;;;;;24.15;17.90;;;;;;;21.80;38.88;100131.19;5072628;28;20036;-85
2022/04/23 13:36:04;;;;;;;21.13;14.75;;;;;;;22.05;38.58;100133.75;5073029;28;20116;-83
2022/04/23 13:38:31;;;;;;;17.13;14.07;;;;;;;21.99;38.14;100125.06;5074551;28;20082;-85
2022/04/23 13:40:57;;;;;;;22.83;15.45;;;;;;;21.99;37.45;100129.72;5087425;28;20021;-84
2022/04/23 13:43:24;;;;;;;16.83;13.60;;;;;;;22.16;38.07;100121.16;5083366;28;20105;-84
2022/04/23 13:45:50;;;;;;;21.67;13.80;;;;;;;22.35;37.17;100125.91;5086344;28;20021;-85
2022/04/23 13:48:15;;;;;;;27.38;15.00;;;;;;;22.44;36.73;100130.38;5077496;28;20028;-84
2022/04/23 13:50:41;;;;;;;23.60;14.70;;;;;;;22.45;36.88;100132.78;5078348;28;20084;-85
2022/04/23 13:53:07;;;;;;;18.77;15.00;;;;;;;22.39;37.18;100131.44;5075585;28;20029;-85
2022/04/23 13:55:32;;;;;;;19.17;15.43;;;;;;;22.23;36.93;100124.06;5062737;28;20028;-84
2022/04/23 13:57:58;;;;;;;19.47;14.33;;;;;;;22.01;38.25;100124.69;5059605;28;20416;-84
2022/04/23 14:00:23;;;;;;;22.45;14.75;;;;;;;21.71;37.67;100122.41;5072546;28;20895;-84
2022/04/23 14:11:02;;;;;;;21.40;13.73;;;;;;;21.75;37.89;100104.19;5073808;28;20293;-84
2022/04/23 14:13:27;;;;;;;16.05;12.40;;;;;;;21.75;36.82;100113.19;5070961;28;20482;-85
2022/04/23 14:15:55;;;;;;;17.57;12.33;;;;;;;21.81;37.12;100110.19;5074214;28;20047;-84
2022/04/23 14:18:20;;;;;;;16.00;11.98;;;;;;;21.78;36.69;100103.50;5074237;28;20051;-84
2022/04/23 14:20:46;;;;;;;18.03;12.47;;;;;;;21.78;37.13;100107.03;5073239;28;20464;-84
2022/04/23 14:23:11;;;;;;;19.57;12.60;;;;;;;21.88;37.52;100102.19;5070425;28;20298;-85
2022/04/23 14:25:40;;;;;;;16.40;12.73;;;;;;;21.94;37.44;100117.13;5072800;28;20427;-86
2022/04/23 14:28:06;;;;;;;15.07;12.48;;;;;;;21.87;36.36;100097.88;5073032;28;20393;-84
2022/04/23 14:30:34;;;;;;;21.20;14.10;;;;;;;21.70;37.08;100094.34;5070313;28;20039;-84
2022/04/23 14:33:00;;;;;;;19.27;14.30;;;;;;;21.56;38.00;100099.41;5072910;28;20029;-85
2022/04/23 14:35:26;;;;;;;17.20;13.37;;;;;;;21.38;37.41;100088.03;5072233;28;20438;-83
2022/04/23 14:37:51;;;;;;;18.38;12.95;;;;;;;21.44;37.48;100083.94;5072995;28;20479;-84
2022/04/23 14:40:17;;;;;;;18.20;13.15;;;;;;;21.42;37.52;100089.75;5072665;28;20039;-84
2022/04/23 14:42:42;;;;;;;19.27;11.73;;;;;;;21.32;37.29;100091.03;5072987;28;20036;-85
2022/04/23 14:45:09;;;;;;;16.10;11.77;;;;;;;21.17;37.80;100086.34;5071700;28;20404;-84
2022/04/23 14:47:34;;;;;;;22.33;13.20;;;;;;;21.02;38.22;100091.38;5072846;28;20032;-84
2022/04/23 14:50:00;;;;;;;23.33;13.30;;;;;;;20.82;37.65;100090.44;5072628;28;20063;-84
2022/04/23 14:55:11;;;;;;;19.20;12.95;;;;;;;20.76;38.13;100077.44;5071073;28;20117;-84
2022/04/23 14:57:36;;;;;;;18.93;13.73;;;;;;;21.10;37.92;100076.03;5072797;28;20467;-85
2022/04/23 15:00:05;;;;;;;23.70;15.47;;;;;;;21.42;38.18;100078.03;5072382;28;20016;-85
2022/04/23 15:02:33;;;;;;;21.75;14.23;;;;;;;21.74;37.72;100083.53;5072698;28;20044;-84
2022/04/23 15:04:59;;;;;;;18.95;13.18;;;;;;;21.57;35.87;100082.69;5072148;28;20036;-84
2022/04/23 15:07:26;;;;;;;18.73;12.63;;;;;;;21.35;36.26;100086.81;5072265;28;20033;-84
2022/04/23 15:09:51;;;;;;;18.35;12.70;;;;;;;21.09;36.18;100087.28;5074148;28;20035;-86
2022/04/23 15:12:16;;;;;;;17.90;12.63;;;;;;;20.88;37.76;100085.53;5075323;28;20024;-84
2022/04/23 15:14:42;;;;;;;15.10;11.83;;;;;;;20.76;36.41;100069.25;5075689;28;20070;-84
2022/04/23 15:17:08;;;;;;;17.50;12.03;;;;;;;20.71;37.56;100073.78;5078370;28;20092;-84
2022/04/23 15:19:33;;;;;;;15.70;11.32;;;;;;;20.72;37.41;100072.66;5073905;28;20040;-85